createdAt,value
2019-03-30T00:00:42.782Z,0.00
2019-03-30T00:01:42.780Z,0.00
2019-03-30T00:02:42.758Z,0.00
2019-03-30T00:03:42.777Z,0.00
2019-03-30T00:04:42.734Z,0.00
2019-03-30T00:05:42.908Z,0.00
2019-03-30T00:06:42.723Z,0.00
2019-03-30T00:07:42.716Z,0.00
2019-03-30T00:08:42.730Z,0.00
2019-03-30T00:09:42.676Z,0.00
2019-03-30T00:10:42.667Z,0.00
2019-03-30T00:11:42.660Z,0.00
2019-03-30T00:12:42.651Z,0.00
2019-03-30T00:13:42.641Z,0.00
2019-03-30T00:14:42.806Z,0.00
2019-03-30T00:15:42.612Z,0.00
2019-03-30T00:16:42.605Z,0.00
2019-03-30T00:17:42.593Z,0.00
2019-03-30T00:18:42.592Z,0.00
2019-03-30T00:19:42.586Z,0.00
2019-03-30T00:20:42.606Z,0.00
2019-03-30T00:21:42.548Z,0.00
2019-03-30T00:22:42.539Z,0.00
2019-03-30T00:23:42.528Z,0.00
2019-03-30T00:24:42.520Z,0.00
2019-03-30T00:25:42.527Z,0.00
2019-03-30T00:26:42.537Z,0.00
2019-03-30T00:27:42.489Z,0.00
2019-03-30T00:28:42.478Z,0.00
2019-03-30T00:29:42.664Z,0.00
2019-03-30T00:30:42.457Z,0.00
2019-03-30T00:31:42.461Z,0.00
2019-03-30T00:32:42.489Z,0.00
2019-03-30T00:33:42.427Z,0.00
2019-03-30T00:34:42.480Z,0.00
2019-03-30T00:35:42.432Z,0.00
2019-03-30T00:36:42.578Z,0.00
2019-03-30T00:37:42.420Z,0.00
2019-03-30T00:38:42.411Z,0.00
2019-03-30T00:39:42.359Z,0.00
2019-03-30T00:40:42.356Z,0.00
2019-03-30T00:41:42.336Z,0.00
2019-03-30T00:42:42.327Z,0.00
2019-03-30T00:43:42.361Z,0.00
2019-03-30T00:44:42.308Z,0.00
2019-03-30T00:45:42.289Z,0.00
2019-03-30T00:46:42.284Z,0.00
2019-03-30T00:47:42.272Z,0.00
2019-03-30T00:48:42.278Z,0.00
2019-03-30T00:49:48.911Z,0.00
2019-03-30T00:50:43.238Z,0.00
2019-03-30T00:51:42.234Z,0.00
2019-03-30T00:52:42.221Z,0.00
2019-03-30T00:53:48.971Z,0.00
2019-03-30T00:54:42.239Z,0.00
2019-03-30T00:55:42.193Z,0.00
2019-03-30T00:56:42.172Z,0.00
2019-03-30T00:57:42.170Z,0.00
2019-03-30T00:58:42.151Z,0.00
2019-03-30T00:59:42.683Z,0.00
2019-03-30T01:00:42.172Z,0.00
2019-03-30T01:01:42.122Z,0.00
2019-03-30T01:02:42.115Z,0.00
2019-03-30T01:03:43.297Z,0.00
2019-03-30T01:04:42.089Z,0.00
2019-03-30T01:05:42.084Z,0.00
2019-03-30T01:06:42.114Z,0.00
2019-03-30T01:07:42.055Z,0.00
2019-03-30T01:08:42.044Z,0.00
2019-03-30T01:09:42.049Z,0.00
2019-03-30T01:10:42.021Z,0.00
2019-03-30T01:11:42.027Z,0.00
2019-03-30T01:12:42.036Z,0.00
2019-03-30T01:13:42.146Z,0.00
2019-03-30T01:14:41.982Z,0.00
2019-03-30T01:15:41.973Z,0.00
2019-03-30T01:16:41.958Z,0.00
2019-03-30T01:17:41.963Z,0.00
2019-03-30T01:18:42.008Z,0.00
2019-03-30T01:19:41.939Z,0.00
2019-03-30T01:20:41.917Z,0.00
2019-03-30T01:21:41.905Z,0.00
2019-03-30T01:22:41.992Z,0.00
2019-03-30T01:23:41.935Z,0.00
2019-03-30T01:24:41.875Z,0.00
2019-03-30T01:25:41.864Z,0.00
2019-03-30T01:26:41.852Z,0.00
2019-03-30T01:27:41.849Z,0.00
2019-03-30T01:28:41.836Z,0.00
2019-03-30T01:29:41.868Z,0.00
2019-03-30T01:30:41.847Z,0.00
2019-03-30T01:31:41.798Z,0.00
2019-03-30T01:32:43.902Z,0.00
2019-03-30T01:33:41.777Z,0.00
2019-03-30T01:34:41.767Z,0.00
2019-03-30T01:35:41.784Z,0.00
2019-03-30T01:36:41.785Z,0.00
2019-03-30T01:37:41.734Z,0.00
2019-03-30T01:38:41.723Z,0.00
2019-03-30T01:39:41.717Z,0.00
2019-03-30T01:40:41.703Z,0.00
2019-03-30T01:41:41.700Z,0.00
2019-03-30T01:42:41.718Z,0.00
2019-03-30T01:43:41.685Z,0.00
2019-03-30T01:44:41.661Z,0.00
2019-03-30T01:45:41.650Z,0.00
2019-03-30T01:46:41.776Z,0.00
2019-03-30T01:47:41.636Z,0.00
2019-03-30T01:48:41.653Z,0.00
2019-03-30T01:49:41.611Z,0.00
2019-03-30T01:50:41.595Z,0.00
2019-03-30T01:51:41.788Z,0.00
2019-03-30T01:52:41.594Z,0.00
2019-03-30T01:53:41.576Z,0.00
2019-03-30T01:54:41.587Z,0.00
2019-03-30T01:55:41.544Z,0.00
2019-03-30T01:56:43.664Z,0.00
2019-03-30T01:57:41.519Z,0.00
2019-03-30T01:58:41.515Z,0.00
2019-03-30T01:59:41.507Z,0.00
2019-03-30T02:00:41.531Z,0.00
2019-03-30T02:01:41.480Z,0.00
2019-03-30T02:02:41.466Z,0.00
2019-03-30T02:03:41.458Z,0.00
2019-03-30T02:04:41.461Z,0.00
2019-03-30T02:05:58.462Z,0.00
2019-03-30T02:06:41.463Z,0.00
2019-03-30T02:07:41.411Z,0.00
2019-03-30T02:08:41.404Z,0.00
2019-03-30T02:09:41.395Z,0.00
2019-03-30T02:11:41.387Z,0.00
2019-03-30T02:12:41.400Z,0.00
2019-03-30T02:13:41.348Z,0.00
2019-03-30T02:14:41.342Z,0.00
2019-03-30T02:16:50.151Z,0.00
2019-03-30T02:17:50.170Z,0.00
2019-03-30T02:18:50.094Z,0.00
2019-03-30T02:19:50.088Z,0.00
2019-03-30T02:20:50.164Z,0.00
2019-03-30T02:21:50.062Z,0.00
2019-03-30T02:22:50.085Z,0.00
2019-03-30T02:23:50.077Z,0.00
2019-03-30T02:24:50.033Z,0.00
2019-03-30T02:26:50.009Z,0.00
2019-03-30T02:27:50.017Z,0.00
2019-03-30T02:28:50.021Z,0.00
2019-03-30T02:29:49.974Z,0.00
2019-03-30T02:31:49.956Z,0.00
2019-03-30T02:32:49.989Z,0.00
2019-03-30T02:33:49.956Z,0.00
2019-03-30T02:34:49.929Z,0.00
2019-03-30T02:36:13.001Z,0.00
2019-03-30T02:36:49.904Z,0.00
2019-03-30T02:37:49.889Z,0.00
2019-03-30T02:38:49.963Z,0.00
2019-03-30T02:40:49.871Z,0.00
2019-03-30T02:41:49.858Z,0.00
2019-03-30T02:42:49.834Z,0.00
2019-03-30T02:43:49.837Z,0.00
2019-03-30T02:45:04.309Z,0.00
2019-03-30T02:45:49.811Z,0.00
2019-03-30T02:46:49.801Z,0.00
2019-03-30T02:47:49.784Z,0.00
2019-03-30T02:48:49.786Z,0.00
2019-03-30T02:50:58.816Z,0.00
2019-03-30T02:51:58.790Z,0.00
2019-03-30T02:52:58.785Z,0.00
2019-03-30T02:55:12.220Z,0.00
2019-03-30T02:56:08.536Z,0.00
2019-03-30T02:57:07.481Z,0.00
2019-03-30T02:58:07.489Z,0.00
2019-03-30T02:59:09.474Z,0.00
2019-03-30T03:00:07.440Z,0.00
2019-03-30T03:01:07.479Z,0.00
2019-03-30T03:02:07.430Z,0.00
2019-03-30T03:03:07.417Z,0.00
2019-03-30T03:05:07.385Z,0.00
2019-03-30T03:06:07.427Z,0.00
2019-03-30T03:07:07.371Z,0.00
2019-03-30T03:08:07.358Z,0.00
2019-03-30T03:09:16.299Z,0.00
2019-03-30T03:10:07.337Z,0.00
2019-03-30T03:11:07.322Z,0.00
2019-03-30T03:12:07.371Z,0.00
2019-03-30T03:13:07.339Z,0.00
2019-03-30T03:14:09.365Z,0.00
2019-03-30T03:15:07.282Z,0.00
2019-03-30T03:16:07.281Z,0.00
2019-03-30T03:17:07.261Z,0.00
2019-03-30T03:18:07.269Z,0.00
2019-03-30T03:20:16.012Z,0.00
2019-03-30T03:21:15.983Z,0.00
2019-03-30T03:22:15.950Z,0.00
2019-03-30T03:24:24.700Z,0.00
2019-03-30T03:25:24.669Z,0.00
2019-03-30T03:26:24.650Z,0.00
2019-03-30T03:27:24.663Z,0.00
2019-03-30T03:29:33.383Z,0.00
2019-03-30T03:30:33.353Z,0.00
2019-03-30T03:31:33.342Z,0.00
2019-03-30T03:32:33.324Z,0.00
2019-03-30T03:33:33.367Z,0.00
2019-03-30T03:34:33.310Z,0.00
2019-03-30T03:35:33.288Z,0.00
2019-03-30T03:36:33.297Z,0.00
2019-03-30T03:38:42.057Z,0.00
2019-03-30T03:39:42.006Z,0.00
2019-03-30T03:40:42.000Z,0.00
2019-03-30T03:41:41.972Z,0.00
2019-03-30T03:43:50.763Z,0.00
2019-03-30T03:44:50.705Z,0.00
2019-03-30T03:45:50.673Z,0.00
2019-03-30T03:46:50.680Z,0.00
2019-03-30T03:48:59.447Z,0.00
2019-03-30T03:49:59.385Z,0.00
2019-03-30T03:50:59.372Z,0.00
2019-03-30T03:51:59.374Z,0.00
2019-03-30T03:52:59.349Z,0.00
2019-03-30T03:53:59.330Z,0.00
2019-03-30T03:54:59.374Z,0.00
2019-03-30T03:55:59.314Z,0.00
2019-03-30T03:58:08.078Z,0.00
2019-03-30T03:59:08.043Z,0.00
2019-03-30T04:00:08.066Z,0.00
2019-03-30T04:01:08.002Z,0.00
2019-03-30T04:02:08.012Z,0.00
2019-03-30T04:03:07.981Z,0.00
2019-03-30T04:04:07.972Z,0.00
2019-03-30T04:05:07.976Z,0.00
2019-03-30T04:06:08.000Z,0.00
2019-03-30T04:08:07.933Z,0.00
2019-03-30T04:09:07.921Z,0.00
2019-03-30T04:10:07.934Z,0.00
2019-03-30T04:11:07.907Z,0.00
2019-03-30T04:13:16.640Z,0.00
2019-03-30T04:14:16.626Z,0.00
2019-03-30T04:15:16.622Z,0.00
2019-03-30T04:16:16.577Z,0.00
2019-03-30T04:18:25.400Z,0.00
2019-03-30T04:19:25.343Z,0.00
2019-03-30T04:20:25.351Z,0.00
2019-03-30T04:21:42.406Z,0.00
2019-03-30T04:22:26.323Z,0.00
2019-03-30T04:23:25.352Z,0.00
2019-03-30T04:24:25.304Z,0.00
2019-03-30T04:25:25.319Z,0.00
2019-03-30T04:26:32.199Z,0.00
2019-03-30T04:27:25.263Z,0.00
2019-03-30T04:28:25.287Z,0.00
2019-03-30T04:29:25.246Z,0.00
2019-03-30T04:30:25.226Z,0.00
2019-03-30T04:31:33.039Z,0.00
2019-03-30T04:32:25.214Z,0.00
2019-03-30T04:33:25.192Z,0.00
2019-03-30T04:34:25.215Z,0.00
2019-03-30T04:35:25.173Z,0.00
2019-03-30T04:36:26.308Z,0.00
2019-03-30T04:37:25.162Z,0.00
2019-03-30T04:38:25.139Z,0.00
2019-03-30T04:39:25.170Z,0.00
2019-03-30T04:40:25.115Z,0.00
2019-03-30T04:41:40.064Z,0.00
2019-03-30T04:42:25.102Z,0.00
2019-03-30T04:43:25.102Z,0.00
2019-03-30T04:44:25.083Z,0.00
2019-03-30T04:45:44.640Z,0.00
2019-03-30T04:46:25.083Z,0.00
2019-03-30T04:47:25.082Z,0.00
2019-03-30T04:48:25.042Z,0.00
2019-03-30T04:49:25.021Z,0.00
2019-03-30T04:50:42.168Z,0.00
2019-03-30T04:51:25.005Z,0.00
2019-03-30T04:52:24.987Z,0.00
2019-03-30T04:53:25.034Z,0.00
2019-03-30T04:54:25.515Z,0.00
2019-03-30T04:55:25.053Z,5.62
2019-03-30T04:56:24.945Z,5.62
2019-03-30T04:58:33.698Z,5.62
2019-03-30T04:59:33.681Z,5.62
2019-03-30T05:00:34.950Z,11.25
2019-03-30T05:01:33.652Z,11.25
2019-03-30T05:02:34.385Z,11.25
2019-03-30T05:03:33.627Z,16.88
2019-03-30T05:04:40.654Z,16.88
2019-03-30T05:05:33.610Z,16.88
2019-03-30T05:06:33.631Z,22.50
2019-03-30T05:07:33.586Z,22.50
2019-03-30T05:08:33.588Z,22.50
2019-03-30T05:10:42.322Z,28.12
2019-03-30T05:11:42.336Z,33.75
2019-03-30T05:12:42.313Z,33.75
2019-03-30T05:13:42.275Z,39.38
2019-03-30T05:14:44.386Z,39.38
2019-03-30T05:15:42.246Z,45.00
2019-03-30T05:16:42.233Z,45.00
2019-03-30T05:17:47.418Z,50.62
2019-03-30T05:18:43.207Z,50.62
2019-03-30T05:19:42.443Z,56.25
2019-03-30T05:20:42.201Z,56.25
2019-03-30T05:21:42.178Z,61.88
2019-03-30T05:22:42.166Z,61.88
2019-03-30T05:23:42.154Z,67.50
2019-03-30T05:24:42.192Z,67.50
2019-03-30T05:25:42.168Z,73.12
2019-03-30T05:26:42.131Z,73.12
2019-03-30T05:27:42.112Z,78.75
2019-03-30T05:28:42.101Z,78.75
2019-03-30T05:29:42.090Z,84.38
2019-03-30T05:30:42.078Z,84.38
2019-03-30T05:31:42.107Z,90.00
2019-03-30T05:32:42.176Z,90.00
2019-03-30T05:33:42.048Z,95.62
2019-03-30T05:34:42.082Z,95.62
2019-03-30T05:35:42.025Z,101.25
2019-03-30T05:36:42.014Z,101.25
2019-03-30T05:37:42.005Z,106.88
2019-03-30T05:38:42.028Z,106.88
2019-03-30T05:39:41.985Z,112.50
2019-03-30T05:40:42.030Z,112.50
2019-03-30T05:41:41.960Z,118.12
2019-03-30T05:42:41.950Z,123.75
2019-03-30T05:43:58.711Z,123.75
2019-03-30T05:44:41.938Z,129.38
2019-03-30T05:45:41.923Z,129.38
2019-03-30T05:46:41.942Z,135.00
2019-03-30T05:47:41.939Z,140.62
2019-03-30T05:48:57.514Z,140.62
2019-03-30T05:49:41.875Z,146.25
2019-03-30T05:50:41.869Z,146.25
2019-03-30T05:51:41.862Z,151.88
2019-03-30T05:52:41.893Z,151.88
2019-03-30T05:54:41.841Z,157.50
2019-03-30T05:55:41.828Z,163.12
2019-03-30T05:56:41.800Z,163.12
2019-03-30T05:57:41.827Z,168.75
2019-03-30T05:59:10.688Z,168.75
2019-03-30T05:59:41.770Z,174.38
2019-03-30T06:00:41.771Z,180.00
2019-03-30T06:01:41.752Z,185.62
2019-03-30T06:02:41.812Z,185.62
2019-03-30T06:03:41.757Z,185.62
2019-03-30T06:04:41.715Z,185.62
2019-03-30T06:05:41.705Z,191.25
2019-03-30T06:06:41.732Z,230.62
2019-03-30T06:07:41.703Z,337.50
2019-03-30T06:08:42.697Z,478.12
2019-03-30T06:09:41.684Z,613.12
2019-03-30T06:10:41.652Z,810.00
2019-03-30T06:11:41.640Z,860.62
2019-03-30T06:12:41.662Z,894.38
2019-03-30T06:13:41.619Z,978.75
2019-03-30T06:14:41.619Z,984.38
2019-03-30T06:15:41.595Z,990.00
2019-03-30T06:16:41.584Z,961.88
2019-03-30T06:17:41.576Z,995.62
2019-03-30T06:18:41.603Z,1057.50
2019-03-30T06:19:41.576Z,990.00
2019-03-30T06:20:41.701Z,1018.12
2019-03-30T06:21:41.530Z,1158.75
2019-03-30T06:22:41.519Z,1198.12
2019-03-30T06:23:41.512Z,1265.62
2019-03-30T06:24:41.532Z,1321.88
2019-03-30T06:25:41.491Z,1355.62
2019-03-30T06:26:41.501Z,1361.25
2019-03-30T06:27:41.486Z,1383.75
2019-03-30T06:28:41.495Z,1417.50
2019-03-30T06:29:41.448Z,1411.88
2019-03-30T06:30:41.434Z,1456.88
2019-03-30T06:31:41.421Z,1395.00
2019-03-30T06:32:41.429Z,1316.25
2019-03-30T06:33:41.400Z,1350.00
2019-03-30T06:34:41.441Z,1271.25
2019-03-30T06:35:41.382Z,1338.75
2019-03-30T06:36:41.469Z,1265.62
2019-03-30T06:37:41.357Z,1496.25
2019-03-30T06:38:41.351Z,1485.00
2019-03-30T06:39:41.338Z,1417.50
2019-03-30T06:40:41.362Z,1513.12
2019-03-30T06:41:41.507Z,1777.50
2019-03-30T06:42:41.303Z,1704.38
2019-03-30T06:43:41.306Z,1625.62
2019-03-30T06:44:41.291Z,1721.25
2019-03-30T06:45:41.268Z,1681.88
2019-03-30T06:46:41.284Z,1625.62
2019-03-30T06:47:41.306Z,1665.00
2019-03-30T06:48:41.236Z,1681.88
2019-03-30T06:49:41.248Z,1591.88
2019-03-30T06:50:41.227Z,1659.38
2019-03-30T06:51:41.202Z,1777.50
2019-03-30T06:52:51.016Z,1873.12
2019-03-30T06:53:42.222Z,1653.75
2019-03-30T06:54:41.170Z,1681.88
2019-03-30T06:55:41.161Z,1946.25
2019-03-30T06:56:41.165Z,1738.12
2019-03-30T06:57:41.154Z,1861.88
2019-03-30T06:58:41.126Z,1895.62
2019-03-30T06:59:41.163Z,1816.88
2019-03-30T07:00:41.114Z,1946.25
2019-03-30T07:01:41.095Z,1991.25
2019-03-30T07:02:41.094Z,1653.75
2019-03-30T07:03:41.114Z,1901.25
2019-03-30T07:04:41.061Z,2255.62
2019-03-30T07:05:41.057Z,1951.88
2019-03-30T07:06:41.040Z,2250.00
2019-03-30T07:07:41.033Z,2171.25
2019-03-30T07:08:41.023Z,2058.75
2019-03-30T07:09:41.052Z,2103.75
2019-03-30T07:10:40.992Z,2272.50
2019-03-30T07:11:40.995Z,2233.12
2019-03-30T07:12:40.974Z,2182.50
2019-03-30T07:13:40.960Z,2154.38
2019-03-30T07:14:40.957Z,2317.50
2019-03-30T07:15:40.978Z,2081.25
2019-03-30T07:16:40.950Z,1755.00
2019-03-30T07:17:40.923Z,2075.62
2019-03-30T07:18:40.926Z,2154.38
2019-03-30T07:19:40.896Z,2233.12
2019-03-30T07:20:40.905Z,2272.50
2019-03-30T07:21:40.915Z,2092.50
2019-03-30T07:22:40.877Z,2075.62
2019-03-30T07:23:40.852Z,2036.25
2019-03-30T07:24:40.853Z,2064.38
2019-03-30T07:25:40.832Z,2131.88
2019-03-30T07:26:40.830Z,2255.62
2019-03-30T07:27:40.848Z,2351.25
2019-03-30T07:28:40.810Z,2351.25
2019-03-30T07:29:40.802Z,2413.12
2019-03-30T07:30:40.779Z,2430.00
2019-03-30T07:31:40.762Z,2413.12
2019-03-30T07:32:40.763Z,2295.00
2019-03-30T07:33:40.777Z,2446.88
2019-03-30T07:34:41.843Z,2626.88
2019-03-30T07:35:40.743Z,2430.00
2019-03-30T07:36:40.709Z,2486.25
2019-03-30T07:37:40.697Z,2626.88
2019-03-30T07:38:40.699Z,2508.75
2019-03-30T07:39:40.720Z,2756.25
2019-03-30T07:40:40.664Z,2576.25
2019-03-30T07:41:40.654Z,2553.75
2019-03-30T07:42:40.639Z,2553.75
2019-03-30T07:43:40.630Z,2767.50
2019-03-30T07:44:40.631Z,2655.00
2019-03-30T07:45:40.649Z,2711.25
2019-03-30T07:46:40.598Z,2705.62
2019-03-30T07:47:40.591Z,2278.12
2019-03-30T07:48:40.573Z,2458.12
2019-03-30T07:49:40.561Z,2941.88
2019-03-30T07:50:40.566Z,2795.62
2019-03-30T07:51:40.580Z,2880.00
2019-03-30T07:52:40.535Z,2711.25
2019-03-30T07:53:44.829Z,2750.62
2019-03-30T07:54:40.511Z,3105.00
2019-03-30T07:55:40.498Z,2998.12
2019-03-30T07:56:40.494Z,2902.50
2019-03-30T07:57:40.510Z,2930.62
2019-03-30T07:58:40.475Z,2902.50
2019-03-30T07:59:40.465Z,2610.00
2019-03-30T08:00:40.447Z,2666.25
2019-03-30T08:01:40.431Z,3037.50
2019-03-30T08:02:40.427Z,3127.50
2019-03-30T08:03:40.447Z,3110.62
2019-03-30T08:04:40.404Z,3088.12
2019-03-30T08:05:40.432Z,2857.50
2019-03-30T08:06:40.385Z,3105.00
2019-03-30T08:07:40.370Z,3015.00
2019-03-30T08:08:40.367Z,2970.00
2019-03-30T08:09:40.345Z,3088.12
2019-03-30T08:10:40.350Z,2716.88
2019-03-30T08:11:40.385Z,2722.50
2019-03-30T08:12:40.334Z,3099.38
2019-03-30T08:13:40.304Z,3015.00
2019-03-30T08:14:40.311Z,3211.88
2019-03-30T08:15:40.281Z,3358.12
2019-03-30T08:16:40.276Z,3138.75
2019-03-30T08:17:40.295Z,2913.75
2019-03-30T08:18:40.246Z,2975.62
2019-03-30T08:19:40.240Z,2722.50
2019-03-30T08:20:40.240Z,3003.75
2019-03-30T08:21:40.226Z,3240.00
2019-03-30T08:22:40.214Z,2953.12
2019-03-30T08:23:40.912Z,3020.62
2019-03-30T08:24:40.183Z,3301.88
2019-03-30T08:25:40.174Z,3223.12
2019-03-30T08:26:40.192Z,2964.38
2019-03-30T08:27:40.151Z,2981.25
2019-03-30T08:28:40.183Z,3200.62
2019-03-30T08:29:40.128Z,3313.12
2019-03-30T08:30:40.117Z,3150.00
2019-03-30T08:31:40.107Z,3375.00
2019-03-30T08:32:40.123Z,3285.00
2019-03-30T08:33:40.121Z,3065.62
2019-03-30T08:34:40.224Z,2964.38
2019-03-30T08:35:40.065Z,2795.62
2019-03-30T08:36:40.050Z,3431.25
2019-03-30T08:37:40.044Z,3763.12
2019-03-30T08:38:40.047Z,3195.00
2019-03-30T08:39:40.058Z,3369.38
2019-03-30T08:40:40.005Z,3330.00
2019-03-30T08:41:40.021Z,3150.00
2019-03-30T08:42:40.123Z,3375.00
2019-03-30T08:43:39.981Z,3448.12
2019-03-30T08:44:41.100Z,3493.12
2019-03-30T08:45:39.992Z,3605.62
2019-03-30T08:46:39.950Z,3476.25
2019-03-30T08:47:39.925Z,3453.75
2019-03-30T08:48:39.921Z,3358.12
2019-03-30T08:49:39.909Z,3470.62
2019-03-30T08:50:39.910Z,3352.50
2019-03-30T08:51:39.929Z,3228.75
2019-03-30T08:52:39.867Z,3538.12
2019-03-30T08:53:53.693Z,3616.88
2019-03-30T08:54:40.873Z,3397.50
2019-03-30T08:55:39.855Z,3256.88
2019-03-30T08:56:39.824Z,3228.75
2019-03-30T08:57:39.851Z,3560.62
2019-03-30T08:58:39.813Z,3735.00
2019-03-30T08:59:39.786Z,3532.50
2019-03-30T09:00:39.788Z,3673.12
2019-03-30T09:01:39.774Z,3403.12
2019-03-30T09:02:39.795Z,3453.75
2019-03-30T09:03:41.853Z,3549.38
2019-03-30T09:04:39.754Z,3594.38
2019-03-30T09:05:39.728Z,3639.38
2019-03-30T09:06:39.720Z,3397.50
2019-03-30T09:07:39.717Z,3751.88
2019-03-30T09:08:42.420Z,3830.62
2019-03-30T09:09:46.727Z,3420.00
2019-03-30T09:10:39.694Z,3420.00
2019-03-30T09:11:48.517Z,3493.12
2019-03-30T09:12:46.747Z,3560.62
2019-03-30T09:13:46.699Z,3746.25
2019-03-30T09:14:46.695Z,3594.38
2019-03-30T09:15:48.645Z,3555.00
2019-03-30T09:16:48.185Z,3813.75
2019-03-30T09:19:27.938Z,3577.50
2019-03-30T09:21:51.077Z,3661.88
2019-03-30T09:23:50.035Z,3802.50
2019-03-30T09:26:08.287Z,4089.38
2019-03-30T09:29:01.569Z,3571.88
2019-03-30T09:30:15.118Z,3774.38
2019-03-30T09:31:07.616Z,4117.50
2019-03-30T09:33:20.247Z,3864.38
2019-03-30T09:35:28.448Z,3954.38
2019-03-30T09:36:48.231Z,4207.50
2019-03-30T09:37:35.315Z,4353.75
2019-03-30T09:38:38.520Z,3757.50
2019-03-30T09:39:45.664Z,3858.75
2019-03-30T09:41:53.147Z,3813.75
2019-03-30T09:44:20.768Z,3633.75
2019-03-30T09:47:00.573Z,3678.75
2019-03-30T09:49:16.067Z,3751.88
2019-03-30T09:50:24.592Z,4140.00
2019-03-30T09:54:26.152Z,3841.88
2019-03-30T09:55:27.347Z,3600.00
2019-03-30T09:56:26.026Z,4156.88
2019-03-30T09:58:34.927Z,4241.25
2019-03-30T09:59:35.496Z,4050.00
2019-03-30T10:00:34.774Z,4066.88
2019-03-30T10:01:36.489Z,3960.00
2019-03-30T10:03:43.502Z,3813.75
2019-03-30T10:04:43.419Z,3841.88
2019-03-30T10:05:44.138Z,3650.62
2019-03-30T10:07:52.332Z,4095.00
2019-03-30T10:08:52.091Z,3633.75
2019-03-30T10:09:52.225Z,3971.25
2019-03-30T10:10:52.073Z,3706.88
2019-03-30T10:13:01.676Z,3988.12
2019-03-30T10:14:01.009Z,3988.12
2019-03-30T10:15:00.913Z,4196.25
2019-03-30T10:16:00.925Z,4545.00
2019-03-30T10:17:00.822Z,4815.00
2019-03-30T10:18:00.780Z,4100.62
2019-03-30T10:19:00.786Z,3183.75
2019-03-30T10:20:04.643Z,3195.00
2019-03-30T10:21:00.832Z,3183.75
2019-03-30T10:22:07.569Z,3279.38
2019-03-30T10:23:00.738Z,3841.88
2019-03-30T10:24:00.718Z,4162.50
2019-03-30T10:25:00.753Z,4556.25
2019-03-30T10:26:00.696Z,5062.50
2019-03-30T10:27:16.033Z,4455.00
2019-03-30T10:28:00.669Z,4038.75
2019-03-30T10:29:00.676Z,3898.12
2019-03-30T10:30:00.647Z,4128.75
2019-03-30T10:31:00.637Z,4246.88
2019-03-30T10:32:00.644Z,3864.38
2019-03-30T10:33:00.661Z,3825.00
2019-03-30T10:34:00.607Z,3920.62
2019-03-30T10:35:00.594Z,4100.62
2019-03-30T10:36:07.651Z,4269.38
2019-03-30T10:37:00.573Z,4044.38
2019-03-30T10:38:00.563Z,4128.75
2019-03-30T10:39:00.581Z,4275.00
2019-03-30T10:40:00.541Z,4291.88
2019-03-30T10:42:03.474Z,4066.88
2019-03-30T10:43:07.601Z,3673.12
2019-03-30T10:44:00.498Z,3510.00
2019-03-30T10:45:00.540Z,4145.62
2019-03-30T10:46:00.580Z,4533.75
2019-03-30T10:47:00.478Z,3723.75
2019-03-30T10:48:00.459Z,3813.75
2019-03-30T10:49:00.469Z,4275.00
2019-03-30T10:50:00.438Z,3937.50
2019-03-30T10:51:01.063Z,3701.25
2019-03-30T10:52:00.405Z,3813.75
2019-03-30T10:53:00.410Z,4179.38
2019-03-30T10:54:00.406Z,4438.12
2019-03-30T10:55:02.482Z,4460.62
2019-03-30T10:56:00.386Z,3858.75
2019-03-30T10:57:00.386Z,3757.50
2019-03-30T10:58:00.391Z,4033.12
2019-03-30T10:59:00.349Z,3768.75
2019-03-30T11:00:21.355Z,3543.75
2019-03-30T11:01:00.326Z,3780.00
2019-03-30T11:02:00.324Z,3532.50
2019-03-30T11:03:00.336Z,3448.12
2019-03-30T11:04:00.307Z,3656.25
2019-03-30T11:05:08.052Z,3476.25
2019-03-30T11:06:00.269Z,3425.62
2019-03-30T11:07:00.283Z,3836.25
2019-03-30T11:08:00.249Z,4010.62
2019-03-30T11:09:00.218Z,3937.50
2019-03-30T11:10:00.644Z,3841.88
2019-03-30T11:11:00.216Z,3808.12
2019-03-30T11:12:00.203Z,3746.25
2019-03-30T11:13:00.214Z,3571.88
2019-03-30T11:14:00.174Z,3296.25
2019-03-30T11:15:00.346Z,3341.25
2019-03-30T11:16:00.152Z,3386.25
2019-03-30T11:17:00.149Z,3161.25
2019-03-30T11:18:00.113Z,3324.38
2019-03-30T11:19:00.154Z,3639.38
2019-03-30T11:20:08.153Z,3695.62
2019-03-30T11:21:01.055Z,3386.25
2019-03-30T11:22:03.083Z,3335.62
2019-03-30T11:23:00.069Z,3408.75
2019-03-30T11:24:00.063Z,3431.25
2019-03-30T11:25:08.053Z,3324.38
2019-03-30T11:26:00.039Z,3268.12
2019-03-30T11:27:00.033Z,3684.38
2019-03-30T11:28:00.028Z,4207.50
2019-03-30T11:29:00.015Z,4021.88
2019-03-30T11:31:00.027Z,3673.12
2019-03-30T11:31:59.991Z,4185.00
2019-03-30T11:32:59.978Z,4455.00
2019-03-30T11:34:01.083Z,4050.00
2019-03-30T11:34:59.955Z,3993.75
2019-03-30T11:35:59.936Z,4123.12
2019-03-30T11:36:59.952Z,3830.62
2019-03-30T11:37:59.897Z,4044.38
2019-03-30T11:38:59.894Z,4044.38
2019-03-30T11:39:59.919Z,4010.62
2019-03-30T11:40:59.871Z,4263.75
2019-03-30T11:41:59.861Z,4061.25
2019-03-30T11:42:59.856Z,3898.12
2019-03-30T11:43:59.846Z,3937.50
2019-03-30T11:44:59.834Z,4038.75
2019-03-30T11:45:59.866Z,3937.50
2019-03-30T11:46:59.837Z,3763.12
2019-03-30T11:47:59.801Z,3813.75
2019-03-30T11:48:59.787Z,3920.62
2019-03-30T11:49:59.761Z,3611.25
2019-03-30T11:50:59.768Z,3920.62
2019-03-30T11:51:59.803Z,4066.88
2019-03-30T11:52:59.755Z,4078.12
2019-03-30T11:53:59.749Z,4235.62
2019-03-30T11:54:59.708Z,4286.25
2019-03-30T11:55:59.716Z,3768.75
2019-03-30T11:56:59.702Z,3448.12
2019-03-30T11:57:59.736Z,3735.00
2019-03-30T11:58:59.671Z,3791.25
2019-03-30T11:59:59.671Z,3819.38
2019-03-30T12:00:59.664Z,3954.38
2019-03-30T12:01:59.650Z,4342.50
2019-03-30T12:03:59.682Z,3526.88
2019-03-30T12:04:59.624Z,3673.12
2019-03-30T12:05:59.608Z,3841.88
2019-03-30T12:06:59.639Z,3588.75
2019-03-30T12:09:08.402Z,3712.50
2019-03-30T12:10:08.302Z,3577.50
2019-03-30T12:11:08.294Z,3808.12
2019-03-30T12:12:08.318Z,3926.25
2019-03-30T12:13:10.390Z,3363.75
2019-03-30T12:14:08.243Z,3015.00
2019-03-30T12:15:08.239Z,3453.75
2019-03-30T12:16:08.222Z,3678.75
2019-03-30T12:17:08.225Z,3543.75
2019-03-30T12:18:08.237Z,3796.88
2019-03-30T12:19:08.198Z,3768.75
2019-03-30T12:20:08.187Z,3712.50
2019-03-30T12:21:08.183Z,3791.25
2019-03-30T12:22:15.159Z,3661.88
2019-03-30T12:23:08.144Z,3628.12
2019-03-30T12:24:08.182Z,4117.50
2019-03-30T12:25:08.129Z,3718.12
2019-03-30T12:26:08.162Z,3330.00
2019-03-30T12:27:08.101Z,3414.38
2019-03-30T12:28:08.107Z,3611.25
2019-03-30T12:29:08.082Z,3881.25
2019-03-30T12:30:08.083Z,4123.12
2019-03-30T12:31:08.067Z,3690.00
2019-03-30T12:32:12.528Z,3127.50
2019-03-30T12:33:09.515Z,3504.38
2019-03-30T12:34:15.082Z,3847.50
2019-03-30T12:35:08.038Z,3493.12
2019-03-30T12:36:08.024Z,3577.50
2019-03-30T12:38:07.982Z,3442.50
2019-03-30T12:39:08.034Z,3566.25
2019-03-30T12:40:07.964Z,3465.00
2019-03-30T12:41:15.073Z,4066.88
2019-03-30T12:42:15.359Z,3976.88
2019-03-30T12:43:15.034Z,2930.62
2019-03-30T12:44:07.925Z,3301.88
2019-03-30T12:45:15.271Z,3375.00
2019-03-30T12:47:10.392Z,3493.12
2019-03-30T12:48:08.683Z,3712.50
2019-03-30T12:49:15.725Z,3723.75
2019-03-30T12:50:08.662Z,3678.75
2019-03-30T12:51:16.506Z,3487.50
2019-03-30T12:52:09.011Z,3611.25
2019-03-30T12:53:17.497Z,3144.38
2019-03-30T12:54:16.845Z,2778.75
2019-03-30T12:58:50.933Z,2688.75
2019-03-30T12:59:51.770Z,2430.00
2019-03-30T13:00:53.473Z,2722.50
2019-03-30T13:01:45.499Z,3020.62
2019-03-30T13:02:55.521Z,3189.38
2019-03-30T13:03:51.761Z,3453.75
2019-03-30T13:04:51.732Z,3498.75
2019-03-30T13:05:53.696Z,3223.12
2019-03-30T13:06:52.029Z,3155.62
2019-03-30T13:11:42.395Z,3127.50
2019-03-30T13:14:11.351Z,3127.50
2019-03-30T13:15:24.755Z,2829.38
2019-03-30T13:16:30.267Z,2964.38
2019-03-30T13:17:18.956Z,3335.62
2019-03-30T13:18:22.131Z,3273.75
2019-03-30T13:19:10.158Z,2857.50
2019-03-30T13:20:17.632Z,2553.75
2019-03-30T13:21:10.148Z,2520.00
2019-03-30T13:22:17.207Z,2806.88
2019-03-30T13:24:40.802Z,3262.50
2019-03-30T13:27:03.454Z,3026.25
2019-03-30T13:28:09.817Z,3307.50
2019-03-30T13:30:11.764Z,3076.88
2019-03-30T13:31:21.657Z,3155.62
2019-03-30T13:32:11.743Z,3166.88
2019-03-30T13:33:22.422Z,2975.62
2019-03-30T13:34:18.746Z,2666.25
2019-03-30T13:36:42.607Z,3200.62
2019-03-30T13:37:48.773Z,2368.12
2019-03-30T13:38:48.728Z,2120.62
2019-03-30T13:39:54.706Z,2722.50
2019-03-30T13:40:48.710Z,3054.38
2019-03-30T13:41:50.233Z,3043.12